MDT,Max TemperatureF,Mean TemperatureF,Min TemperatureF,Max Dew PointF,MeanDew PointF,Min DewpointF,Max Humidity, Mean Humidity, Min Humidity, Max Sea Level PressureIn, Mean Sea Level PressureIn, Min Sea Level PressureIn, Max VisibilityMiles, Mean VisibilityMiles, Min VisibilityMiles, Max Wind SpeedMPH, Mean Wind SpeedMPH, Max Gust SpeedMPH,PrecipitationIn, CloudCover, Events, WindDirDegrees
2012-8-1,74,59,44,54,48,45,100,63,31,30.11,30.06,29.98,15,6,1,9,4,,0.00,3,Fog,297
2012-8-2,54,50,46,49,46,43,94,84,67,30.13,30.07,29.99,20,15,6,20,9,25,0.16,7,Rain,320
2012-8-3,69,54,39,54,48,39,94,71,42,30.19,30.15,30.11,20,12,5,13,8,,0.12,6,Rain,319
2012-8-4,77,62,48,57,54,50,100,63,37,30.13,30.08,29.99,20,18,15,14,6,,0.00,2,,211
2012-8-5,80,66,51,61,57,51,94,66,40,30.10,30.05,29.99,20,18,15,17,9,21,0.00,1,,199
2012-8-6,85,66,48,61,57,48,100,60,37,30.09,30.07,30.03,20,16,15,14,8,,0.00,3,,103
2012-8-7,79,67,55,61,57,52,88,69,45,30.18,30.11,30.07,20,19,15,14,6,,0.00,5,Rain-Thunderstorm,351
2012-8-8,80,63,46,64,56,46,100,69,39,30.14,30.05,29.92,20,19,15,29,7,40,0.00,6,Fog-Rain,76
2012-8-9,79,62,46,52,49,46,100,48,22,30.16,30.11,30.05,20,18,6,16,11,23,0.00,4,,145
2012-8-10,75,62,48,58,55,47,94,68,50,30.07,30.04,30.01,20,15,6,14,11,24,0.00,3,Thunderstorm,360
2012-8-11,70,60,51,54,51,48,94,67,46,30.21,30.17,30.11,20,17,6,12,7,,0.00,8,,27
2012-8-12,73,58,44,55,52,43,93,68,44,30.28,30.20,30.10,20,14,6,15,9,20,0.00,5,,136
2012-8-13,80,60,40,57,51,41,100,63,28,30.11,29.99,29.88,20,14,6,12,4,,0.00,4,Fog,168
2012-8-14,72,61,50,57,51,46,100,79,48,30.17,29.95,29.81,20,16,5,36,12,52,0.04,7,Rain,356
2012-8-15,62,53,44,45,41,37,100,63,30,30.39,30.33,30.25,20,15,6,9,6,,0.02,4,Rain,306
2012-8-16,74,54,34,48,41,34,100,53,23,30.21,30.15,30.10,20,11,6,9,4,,0.00,1,,60
2012-8-17,77,56,36,50,44,37,100,55,22,30.19,30.17,30.14,15,10,6,10,7,,0.00,0,,13
2012-8-18,80,58,37,50,47,39,100,54,19,30.21,30.14,30.06,20,11,6,14,7,18,0.00,1,,156
2012-8-19,84,62,41,57,51,41,100,61,27,30.04,30.00,29.96,20,16,6,16,6,24,0.00,5,,5
2012-8-20,83,64,45,57,50,45,100,54,25,30.04,29.98,29.94,20,14,6,13,8,23,0.00,5,Rain-Thunderstorm,292
2012-8-21,75,60,45,58,52,45,94,65,41,29.98,29.90,29.83,20,14,6,8,6,,0.00,7,Thunderstorm,278
2012-8-22,78,64,49,48,46,45,88,53,25,29.93,29.88,29.86,20,13,6,8,6,,0.00,4,,15
2012-8-23,76,58,39,52,45,39,100,61,25,29.89,29.81,29.74,15,10,6,18,9,26,0.00,5,Rain,315
2012-8-24,59,50,42,45,42,39,100,80,51,30.04,29.96,29.85,15,9,3,23,10,30,0.35,7,Rain-Thunderstorm,300
2012-8-25,66,50,33,43,38,32,93,59,26,30.10,30.05,30.00,20,12,6,14,5,,0.00,2,,342
2012-8-26,72,52,32,46,41,32,100,57,27,30.13,30.06,30.01,15,10,6,18,9,25,0.00,3,Fog,150
2012-8-27,82,58,35,57,48,35,93,62,30,30.03,29.97,29.92,15,13,6,15,6,20,0.00,4,Rain,289
2012-8-28,82,64,47,45,40,36,67,38,16,29.99,29.85,29.75,20,13,6,16,11,24,0.00,2,,204
2012-8-29,67,57,47,45,39,34,87,51,21,29.98,29.89,29.76,20,12,6,20,14,30,0.04,4,Rain,266
2012-8-30,69,50,30,41,36,28,93,52,21,30.08,30.01,29.96,20,14,6,10,5,,0.00,2,,215
2012-8-31,68,50,32,47,43,33,93,70,38,30.04,29.98,29.88,20,18,15,10,7,,0.00,6,,4